createdAt,value
2018-09-21T00:02:01.010Z,4.40
2018-09-21T00:04:29.146Z,4.70
2018-09-21T00:06:56.426Z,4.43
2018-09-21T00:09:23.700Z,4.50
2018-09-21T00:11:50.973Z,4.30
2018-09-21T00:14:18.751Z,4.83
2018-09-21T00:16:46.002Z,4.40
2018-09-21T00:19:13.257Z,4.40
2018-09-21T00:24:08.110Z,4.55
2018-09-21T00:26:35.998Z,4.70
2018-09-21T00:29:03.271Z,4.20
2018-09-21T00:31:30.559Z,4.67
2018-09-21T00:36:24.608Z,4.80
2018-09-21T00:43:51.607Z,4.55
2018-09-21T00:46:18.852Z,4.33
2018-09-21T00:48:46.111Z,4.35
2018-09-21T00:51:13.359Z,4.60
2018-09-21T00:53:40.609Z,4.45
2018-09-21T00:56:07.859Z,4.70
2018-09-21T00:58:35.161Z,4.43
2018-09-21T01:01:02.439Z,4.80
2018-09-21T01:03:29.724Z,5.20
2018-09-21T01:05:56.988Z,4.80
2018-09-21T01:08:24.258Z,4.70
2018-09-21T01:10:51.568Z,4.57
2018-09-21T01:13:18.806Z,4.87
2018-09-21T01:15:46.074Z,4.50
2018-09-21T01:18:13.333Z,5.20
2018-09-21T01:20:40.603Z,4.73
2018-09-21T01:23:07.854Z,4.70
2018-09-21T01:25:35.112Z,4.55
2018-09-21T01:28:03.339Z,4.35
2018-09-21T01:30:30.624Z,5.30
2018-09-21T01:32:57.868Z,4.63
2018-09-21T01:35:25.634Z,4.90
2018-09-21T01:37:52.868Z,4.70
2018-09-21T01:40:20.126Z,4.97
2018-09-21T01:42:47.249Z,5.13
2018-09-21T01:45:14.340Z,4.87
2018-09-21T01:47:41.433Z,5.10
2018-09-21T01:52:58.788Z,5.00
2018-09-21T01:57:58.940Z,5.20
2018-09-21T02:00:40.321Z,5.33
2018-09-21T02:03:07.416Z,5.00
2018-09-21T02:05:40.493Z,5.60
2018-09-21T02:08:07.700Z,5.43
2018-09-21T02:10:34.789Z,5.00
2018-09-21T02:13:01.905Z,4.50
2018-09-21T02:15:28.985Z,4.85
2018-09-21T02:23:30.604Z,4.80
2018-09-21T02:25:57.690Z,5.15
2018-09-21T02:28:24.780Z,4.35
2018-09-21T02:31:09.376Z,5.40
2018-09-21T02:35:43.550Z,5.00
2018-09-21T02:38:22.420Z,4.80
2018-09-21T02:40:56.135Z,5.10
2018-09-21T02:43:40.685Z,4.70
2018-09-21T02:46:19.284Z,5.07
2018-09-21T02:48:46.565Z,4.63
2018-09-21T02:51:13.726Z,4.77
2018-09-21T02:53:40.952Z,5.00
2018-09-21T02:56:08.164Z,4.83
2018-09-21T02:58:35.398Z,5.03
2018-09-21T03:01:02.638Z,4.83
2018-09-21T03:03:29.860Z,5.20
2018-09-21T03:05:57.068Z,4.50
2018-09-21T03:08:24.276Z,5.40
2018-09-21T03:10:51.768Z,5.60
2018-09-21T03:15:45.507Z,5.30
2018-09-21T03:18:12.590Z,5.27
2018-09-21T03:20:39.672Z,4.97
2018-09-21T03:23:06.780Z,4.93
2018-09-21T03:25:33.889Z,5.20
2018-09-21T03:28:00.968Z,5.43
2018-09-21T03:30:28.068Z,4.93
2018-09-21T03:32:55.182Z,5.05
2018-09-21T03:35:22.323Z,5.10
2018-09-21T03:37:49.376Z,5.10
2018-09-21T03:40:16.473Z,5.00
2018-09-21T03:42:43.557Z,5.05
2018-09-21T03:45:10.657Z,5.03
2018-09-21T03:47:37.752Z,4.80
2018-09-21T03:50:05.145Z,5.37
2018-09-21T03:52:32.244Z,5.07
2018-09-21T03:54:59.341Z,5.25
2018-09-21T03:57:26.441Z,5.33
2018-09-21T03:59:53.548Z,5.65
2018-09-21T04:02:21.340Z,5.47
2018-09-21T04:04:48.431Z,5.10
2018-09-21T04:07:15.513Z,5.50
2018-09-21T04:09:42.616Z,5.50
2018-09-21T04:12:09.711Z,5.00
2018-09-21T04:14:36.800Z,4.60
2018-09-21T04:17:04.003Z,5.00
2018-09-21T04:19:31.100Z,4.77
2018-09-21T04:21:58.208Z,4.87
2018-09-21T04:24:25.306Z,4.40
2018-09-21T04:26:52.404Z,4.40
2018-09-21T04:29:19.497Z,4.45
2018-09-21T04:31:46.613Z,4.55
2018-09-21T04:34:13.732Z,4.40
2018-09-21T04:44:01.564Z,4.90
2018-09-21T04:46:28.729Z,4.40
2018-09-21T04:53:49.149Z,4.20
2018-09-21T05:13:22.924Z,4.70
2018-09-21T05:30:32.463Z,4.10
2018-09-21T05:45:13.249Z,4.30
2018-09-21T05:47:40.446Z,4.10
2018-09-21T05:50:07.557Z,4.60
2018-09-21T05:52:34.666Z,4.10
2018-09-21T05:55:01.777Z,3.80
2018-09-21T05:57:28.894Z,3.90
2018-09-21T06:04:54.033Z,3.90
2018-09-21T06:31:47.786Z,4.00
2018-09-21T06:44:02.599Z,3.80
2018-09-21T07:08:29.702Z,3.80
2018-09-21T07:25:38.052Z,2.35
2018-09-21T07:28:05.281Z,2.25
2018-09-21T07:30:32.921Z,2.20
2018-09-21T07:33:00.089Z,2.05
2018-09-21T07:35:27.191Z,1.97
2018-09-21T07:38:09.009Z,1.80
2018-09-21T07:40:36.152Z,1.83
2018-09-21T07:43:03.456Z,2.00
2018-09-21T07:45:30.542Z,2.00
2018-09-21T07:47:57.648Z,2.13
2018-09-21T07:52:51.428Z,1.87
2018-09-21T07:55:18.526Z,1.60
2018-09-21T07:57:45.633Z,2.00
2018-09-21T08:00:12.748Z,1.87
2018-09-21T08:02:39.872Z,2.03
2018-09-21T08:05:07.088Z,2.00
2018-09-21T08:07:34.112Z,2.17
2018-09-21T08:10:01.249Z,1.93
2018-09-21T08:12:28.369Z,2.80
2018-09-21T08:14:55.472Z,2.20
2018-09-21T08:17:22.573Z,2.00
2018-09-21T08:19:49.685Z,2.20
2018-09-21T08:22:16.787Z,1.80
2018-09-21T08:24:43.908Z,2.03
2018-09-21T08:27:13.453Z,2.43
2018-09-21T08:29:40.565Z,2.40
2018-09-21T08:32:07.684Z,2.30
2018-09-21T08:34:34.811Z,2.60
2018-09-21T08:37:01.938Z,2.20
2018-09-21T08:39:29.030Z,2.47
2018-09-21T08:41:56.157Z,2.50
2018-09-21T08:44:23.311Z,2.37
2018-09-21T08:46:50.416Z,2.30
2018-09-21T08:49:17.514Z,2.67
2018-09-21T08:51:44.612Z,2.80
2018-09-21T08:54:11.693Z,2.50
2018-09-21T08:56:38.796Z,2.90
2018-09-21T08:59:05.885Z,2.87
2018-09-21T09:01:32.988Z,2.80
2018-09-21T09:04:00.112Z,2.60
2018-09-21T09:06:27.224Z,2.70
2018-09-21T09:08:54.372Z,3.03
2018-09-21T09:11:21.518Z,2.40
2018-09-21T09:13:48.628Z,3.07
2018-09-21T09:16:15.753Z,2.75
2018-09-21T09:18:42.848Z,3.05
2018-09-21T09:21:09.948Z,3.25
2018-09-21T09:23:37.069Z,2.83
2018-09-21T09:26:04.225Z,2.97
2018-09-21T09:28:31.347Z,3.10
2018-09-21T09:30:58.452Z,3.23
2018-09-21T09:33:25.561Z,2.70
2018-09-21T09:41:27.320Z,2.75
2018-09-21T09:43:54.437Z,2.57
2018-09-21T09:46:21.549Z,2.40
2018-09-21T09:54:23.381Z,2.20
2018-09-21T09:56:52.743Z,2.20
2018-09-21T09:59:23.930Z,2.40
2018-09-21T10:01:57.322Z,2.00
2018-09-21T10:04:26.187Z,1.80
2018-09-21T10:06:55.944Z,1.90
2018-09-21T10:09:31.340Z,2.10
2018-09-21T10:11:59.954Z,2.00
2018-09-21T10:14:30.168Z,1.65
2018-09-21T10:17:02.723Z,1.55
2018-09-21T10:19:30.803Z,1.70
2018-09-21T10:21:57.913Z,1.95
2018-09-21T10:24:25.008Z,1.70
2018-09-21T10:26:52.135Z,2.00
2018-09-21T10:29:19.253Z,1.60
2018-09-21T10:31:46.357Z,1.70
2018-09-21T10:34:13.464Z,1.50
2018-09-21T10:36:40.588Z,1.60
2018-09-21T10:39:08.048Z,1.50
2018-09-21T10:41:35.433Z,1.30
2018-09-21T10:44:02.567Z,1.20
2018-09-21T10:46:29.669Z,1.30
2018-09-21T10:48:56.769Z,1.20
2018-09-21T10:51:23.869Z,1.40
2018-09-21T10:53:50.971Z,1.00
2018-09-21T10:56:18.096Z,1.20
2018-09-21T10:58:45.321Z,1.10
2018-09-21T11:01:12.417Z,0.90
2018-09-21T11:03:39.544Z,1.20
2018-09-21T11:06:06.674Z,0.80
2018-09-21T11:09:36.979Z,1.20
2018-09-21T11:12:04.123Z,1.00
2018-09-21T11:14:31.264Z,0.90
2018-09-21T11:16:58.368Z,1.00
2018-09-21T11:19:25.460Z,0.90
2018-09-21T11:21:52.617Z,0.90
2018-09-21T11:24:19.728Z,1.00
2018-09-21T11:26:46.845Z,0.87
2018-09-21T11:29:13.945Z,1.00
2018-09-21T11:31:41.074Z,1.20
2018-09-21T11:34:08.165Z,1.25
2018-09-21T11:36:35.284Z,1.10
2018-09-21T11:39:02.592Z,1.00
2018-09-21T11:41:29.707Z,0.97
2018-09-21T11:43:56.812Z,1.20
2018-09-21T11:47:27.079Z,1.00
2018-09-21T11:52:20.809Z,0.90
2018-09-21T11:57:14.585Z,1.20
2018-09-21T12:11:54.964Z,1.00
2018-09-21T12:14:22.075Z,0.90
2018-09-21T12:16:49.246Z,1.20
2018-09-21T12:19:16.330Z,0.95
2018-09-21T12:21:43.437Z,1.10
2018-09-21T12:24:10.542Z,1.00
2018-09-21T12:26:37.669Z,1.00
2018-09-21T12:29:05.060Z,0.90
2018-09-21T12:31:32.182Z,1.10
2018-09-21T12:33:59.297Z,0.90
2018-09-21T12:38:53.084Z,1.25
2018-09-21T12:41:20.245Z,1.00
2018-09-21T12:43:47.457Z,1.20
2018-09-21T12:46:21.439Z,0.97
2018-09-21T12:48:49.504Z,1.00
2018-09-21T12:51:16.893Z,1.20
2018-09-21T12:53:44.189Z,1.00
2018-09-21T12:56:11.512Z,1.20
2018-09-21T12:58:39.469Z,1.10
2018-09-21T13:01:07.507Z,1.20
2018-09-21T13:03:34.852Z,1.10
2018-09-21T13:06:02.274Z,1.10
2018-09-21T13:18:17.592Z,1.10
2018-09-21T13:20:44.970Z,0.90
2018-09-21T13:23:12.297Z,1.20
2018-09-21T13:25:39.718Z,1.40
2018-09-21T13:28:08.126Z,1.20
2018-09-21T13:30:35.683Z,1.40
2018-09-21T13:33:03.084Z,0.90
2018-09-21T13:35:30.525Z,1.20
2018-09-21T13:37:58.321Z,1.03
2018-09-21T13:40:25.721Z,1.13
2018-09-21T13:42:53.012Z,1.17
2018-09-21T13:45:20.426Z,1.10
2018-09-21T13:47:48.008Z,1.30
2018-09-21T13:50:15.355Z,1.30
2018-09-21T13:52:42.645Z,1.30
2018-09-21T13:55:09.932Z,1.15
2018-09-21T13:57:37.257Z,0.90
2018-09-21T14:00:04.725Z,1.30
2018-09-21T14:02:32.021Z,1.05
2018-09-21T14:04:59.645Z,1.00
2018-09-21T14:07:26.978Z,1.00
2018-09-21T14:09:54.316Z,1.10
2018-09-21T14:12:21.702Z,0.90
2018-09-21T14:14:49.009Z,1.00
2018-09-21T14:17:16.880Z,1.00
2018-09-21T14:19:44.425Z,1.20
2018-09-21T14:22:12.246Z,1.10
2018-09-21T14:24:39.618Z,0.90
2018-09-21T14:27:07.427Z,1.20
2018-09-21T14:29:34.745Z,1.43
2018-09-21T14:32:02.130Z,1.03
2018-09-21T14:34:29.514Z,1.30
2018-09-21T14:36:57.097Z,1.33
2018-09-21T14:39:24.669Z,1.10
2018-09-21T14:41:52.357Z,1.30
2018-09-21T14:44:19.837Z,1.50
2018-09-21T14:46:47.285Z,1.65
2018-09-21T14:49:15.249Z,1.10
2018-09-21T14:51:42.833Z,1.30
2018-09-21T14:54:10.118Z,1.30
2018-09-21T14:56:37.458Z,1.20
2018-09-21T14:59:05.336Z,1.30
2018-09-21T15:01:32.763Z,1.20
2018-09-21T15:04:00.744Z,1.20
2018-09-21T15:06:28.486Z,1.33
2018-09-21T15:08:56.280Z,1.10
2018-09-21T15:11:23.625Z,1.40
2018-09-21T15:13:52.555Z,1.20
2018-09-21T15:21:13.648Z,1.20
2018-09-21T15:23:40.966Z,1.00
2018-09-21T15:26:08.297Z,1.50
2018-09-21T16:20:00.902Z,1.40
2018-09-21T16:37:13.358Z,1.30
2018-09-21T16:39:42.289Z,1.40
2018-09-21T16:42:09.644Z,1.30
2018-09-21T16:44:37.485Z,1.70
2018-09-21T16:51:58.436Z,1.20
2018-09-21T16:56:52.745Z,1.20
2018-09-21T16:59:20.037Z,1.60
2018-09-21T17:01:47.327Z,1.50
2018-09-21T17:04:14.682Z,1.45
2018-09-21T17:06:41.925Z,1.30
2018-09-21T17:09:10.671Z,1.50
2018-09-21T17:11:37.994Z,1.30
2018-09-21T17:14:05.341Z,1.50
2018-09-21T17:16:32.673Z,1.50
2018-09-21T17:18:59.997Z,1.50
2018-09-21T17:21:27.303Z,1.50
2018-09-21T17:23:54.622Z,1.30
2018-09-21T17:26:21.916Z,1.50
2018-09-21T17:28:49.272Z,1.60
2018-09-21T17:31:16.576Z,1.30
2018-09-21T17:33:43.873Z,2.00
2018-09-21T17:36:11.173Z,1.60
2018-09-21T17:38:38.461Z,1.20
2018-09-21T17:41:05.781Z,1.30
2018-09-21T17:43:33.086Z,1.93
2018-09-21T17:46:00.376Z,1.80
2018-09-21T17:48:27.681Z,1.40
2018-09-21T17:50:54.961Z,1.60
2018-09-21T17:53:22.274Z,2.00
2018-09-21T17:55:49.593Z,1.60
2018-09-21T17:59:19.800Z,1.60
2018-09-21T18:01:47.134Z,1.93
2018-09-21T18:04:14.429Z,2.00
2018-09-21T18:06:41.728Z,1.90
2018-09-21T18:09:10.014Z,1.90
2018-09-21T18:11:37.325Z,1.87
2018-09-21T18:14:04.620Z,2.07
2018-09-21T18:16:31.949Z,2.37
2018-09-21T18:18:59.214Z,2.20
2018-09-21T18:21:26.509Z,2.23
2018-09-21T18:23:53.822Z,2.20
2018-09-21T18:26:21.144Z,1.70
2018-09-21T18:28:48.499Z,2.00
2018-09-21T18:31:15.833Z,1.90
2018-09-21T18:33:43.101Z,2.30
2018-09-21T18:36:10.396Z,2.00
2018-09-21T18:38:37.713Z,2.00
2018-09-21T18:41:35.869Z,2.00
2018-09-21T18:44:03.564Z,1.87
2018-09-21T18:46:30.861Z,2.10
2018-09-21T18:48:58.208Z,2.20
2018-09-21T18:51:25.492Z,1.90
2018-09-21T18:53:52.772Z,2.10
2018-09-21T18:56:20.089Z,2.07
2018-09-21T18:58:47.378Z,2.10
2018-09-21T19:01:14.660Z,2.15
2018-09-21T19:03:41.953Z,2.65
2018-09-21T19:06:09.244Z,2.00
2018-09-21T19:08:36.540Z,2.10
2018-09-21T19:11:03.855Z,2.13
2018-09-21T19:13:31.167Z,2.30
2018-09-21T19:15:58.465Z,2.50
2018-09-21T19:18:25.773Z,2.40
2018-09-21T19:20:53.059Z,2.30
2018-09-21T19:23:20.381Z,2.80
2018-09-21T19:25:47.672Z,2.50
2018-09-21T19:28:15.027Z,2.47
2018-09-21T19:30:42.332Z,2.25
2018-09-21T19:33:09.614Z,2.40
2018-09-21T19:35:36.900Z,2.40
2018-09-21T19:38:04.258Z,2.50
2018-09-21T19:40:31.558Z,2.43
2018-09-21T19:42:58.858Z,2.70
2018-09-21T19:45:26.223Z,2.10
2018-09-21T19:47:53.434Z,2.50
2018-09-21T19:50:20.728Z,2.33
2018-09-21T19:52:48.013Z,2.60
2018-09-21T19:55:15.313Z,2.37
2018-09-21T19:57:42.606Z,2.87
2018-09-21T20:00:09.900Z,2.50
2018-09-21T20:02:37.177Z,2.45
2018-09-21T20:05:04.577Z,2.60
2018-09-21T20:07:31.865Z,2.60
2018-09-21T20:09:59.138Z,2.90
2018-09-21T20:12:26.509Z,2.55
2018-09-21T20:14:53.805Z,3.00
2018-09-21T20:17:21.093Z,2.40
2018-09-21T20:19:48.393Z,2.60
2018-09-21T20:22:15.698Z,2.60
2018-09-21T20:24:42.972Z,2.50
2018-09-21T20:27:10.277Z,2.60
2018-09-21T20:29:37.560Z,2.40
2018-09-21T20:32:10.542Z,2.90
2018-09-21T20:34:37.837Z,2.80
2018-09-21T20:37:05.161Z,2.80
2018-09-21T20:39:32.420Z,2.75
2018-09-21T20:41:59.724Z,2.25
2018-09-21T20:44:27.054Z,2.53
2018-09-21T20:46:54.372Z,2.60
2018-09-21T20:49:21.712Z,2.50
2018-09-21T20:51:49.026Z,2.77
2018-09-21T20:54:16.321Z,3.20
2018-09-21T20:56:43.608Z,2.95
2018-09-21T20:59:11.052Z,2.90
2018-09-21T21:01:38.297Z,2.80
2018-09-21T21:04:05.767Z,3.30
2018-09-21T21:06:33.060Z,2.80
2018-09-21T21:09:00.368Z,3.20
2018-09-21T21:11:27.670Z,2.80
2018-09-21T21:13:54.952Z,2.60
2018-09-21T21:16:22.249Z,3.10
2018-09-21T21:18:49.540Z,2.90
2018-09-21T21:21:16.828Z,3.00
2018-09-21T21:23:44.240Z,3.03
2018-09-21T21:26:11.524Z,2.93
2018-09-21T21:28:38.832Z,3.10
2018-09-21T21:31:06.153Z,3.10
2018-09-21T21:33:33.438Z,3.00
2018-09-21T21:36:00.741Z,2.80
2018-09-21T21:43:21.601Z,2.95
2018-09-21T21:45:48.884Z,2.93
2018-09-21T21:48:16.240Z,3.30
2018-09-21T21:50:43.549Z,3.20
2018-09-21T21:53:10.848Z,3.13
2018-09-21T21:55:38.123Z,3.37
2018-09-21T21:58:05.429Z,3.00
2018-09-21T22:00:38.280Z,2.77
2018-09-21T22:03:05.576Z,2.70
2018-09-21T22:05:32.899Z,2.87
2018-09-21T22:08:00.203Z,3.50
2018-09-21T22:10:27.481Z,3.30
2018-09-21T22:13:00.341Z,3.23
2018-09-21T22:15:27.642Z,2.97
2018-09-21T22:17:54.935Z,2.90
2018-09-21T22:20:22.262Z,3.03
2018-09-21T22:22:49.564Z,2.90
2018-09-21T22:25:16.849Z,3.67
2018-09-21T22:27:44.139Z,3.63
2018-09-21T22:30:12.278Z,2.90
2018-09-21T22:32:40.048Z,2.87
2018-09-21T22:35:07.397Z,3.03
2018-09-21T22:37:34.685Z,3.07
2018-09-21T22:40:02.003Z,3.60
2018-09-21T22:42:29.297Z,3.50
2018-09-21T22:44:56.648Z,3.47
2018-09-21T22:47:23.900Z,3.00
2018-09-21T22:49:51.189Z,3.10
2018-09-21T22:52:18.465Z,3.50
2018-09-21T22:54:45.809Z,3.07
2018-09-21T22:57:13.081Z,3.17
2018-09-21T22:59:40.392Z,3.37
2018-09-21T23:02:07.709Z,3.07
2018-09-21T23:04:35.012Z,3.00
2018-09-21T23:07:02.457Z,3.07
2018-09-21T23:09:29.753Z,3.47
2018-09-21T23:11:57.031Z,2.67
2018-09-21T23:14:24.328Z,3.00
2018-09-21T23:16:51.629Z,2.90
2018-09-21T23:19:18.908Z,3.07
2018-09-21T23:21:46.217Z,3.00
2018-09-21T23:24:13.501Z,2.60
2018-09-21T23:26:40.797Z,2.50
2018-09-21T23:29:08.090Z,3.20
2018-09-21T23:31:35.392Z,2.47
2018-09-21T23:34:02.666Z,2.65
2018-09-21T23:36:29.972Z,2.70
2018-09-21T23:38:57.299Z,2.60
2018-09-21T23:41:24.601Z,2.97
2018-09-21T23:43:51.884Z,2.70
2018-09-21T23:46:19.201Z,3.03
2018-09-21T23:48:46.485Z,3.00
2018-09-21T23:51:13.776Z,3.25
2018-09-21T23:53:41.133Z,3.30
2018-09-21T23:56:08.755Z,3.10
2018-09-21T23:58:36.422Z,3.15
